Time;durP1;ratioP1;P1;durP2;ratioP2;P2;SDS_P1;SDS_P2;PMS_P1;PMS_P2;Temp;Humidity;BMP_temperature;BMP_pressure;BME280_temperature;BME280_humidity;BME280_pressure;Samples;Min_cycle;Max_cycle;Signal;HPM_P1;HPM_P2
2022/09/19 00:01:30;;;;;;;15.10;7.93;;;;;;;12.65;86.50;97405.03;4858677;29;20490;-82
2022/09/19 00:03:59;;;;;;;16.05;7.85;;;;;;;12.53;86.64;97403.06;4877375;29;20579;-83
2022/09/19 00:06:27;;;;;;;13.35;7.38;;;;;;;12.71;86.82;97426.47;4873432;29;20459;-83
2022/09/19 00:08:54;;;;;;;13.55;7.53;;;;;;;12.60;86.66;97403.56;4872504;29;20044;-84
2022/09/19 00:11:22;;;;;;;16.33;7.88;;;;;;;12.43;86.78;97376.66;4871688;29;20051;-82
2022/09/19 00:13:50;;;;;;;15.70;8.18;;;;;;;12.78;87.02;97433.88;4886865;29;20057;-81
2022/09/19 00:16:19;;;;;;;17.95;8.05;;;;;;;12.60;86.81;97398.34;4870157;29;20489;-81
2022/09/19 00:18:47;;;;;;;14.15;7.75;;;;;;;12.70;86.92;97402.16;4872295;29;20045;-82
2022/09/19 00:21:20;;;;;;;20.75;8.75;;;;;;;12.63;87.00;97383.38;4872880;29;20041;-83
2022/09/19 00:26:31;;;;;;;17.67;8.82;;;;;;;12.81;87.34;97389.31;4875001;29;20041;-82
2022/09/19 00:28:57;;;;;;;19.15;9.27;;;;;;;12.61;87.05;97359.16;4872520;29;20052;-82
2022/09/19 00:31:23;;;;;;;19.65;9.82;;;;;;;12.58;86.94;97361.94;4872941;29;20056;-82
2022/09/19 00:33:50;;;;;;;18.13;9.57;;;;;;;12.75;86.98;97389.69;4872251;29;20525;-82
2022/09/19 00:36:17;;;;;;;19.65;8.88;;;;;;;12.81;86.94;97388.50;4873141;29;20048;-82
2022/09/19 00:38:44;;;;;;;19.83;9.82;;;;;;;12.81;86.98;97394.53;4871562;29;20136;-81
2022/09/19 00:41:25;;;;;;;18.73;9.70;;;;;;;12.54;86.91;97336.94;4873969;29;20056;-81
2022/09/19 00:43:57;;;;;;;22.08;10.38;;;;;;;12.82;87.00;97382.34;4875515;29;20433;-81
2022/09/19 00:46:25;;;;;;;21.05;10.15;;;;;;;12.83;87.10;97378.81;4879695;29;20045;-82
2022/09/19 00:49:18;;;;;;;24.08;10.50;;;;;;;12.75;86.93;97362.75;4883732;29;20045;-83
2022/09/19 00:51:48;;;;;;;21.30;9.57;;;;;;;12.77;87.05;97359.13;4876558;29;20134;-81
2022/09/19 00:54:25;;;;;;;26.10;10.60;;;;;;;12.88;87.00;97378.53;4876357;29;20041;-83
2022/09/19 00:56:54;;;;;;;21.67;10.85;;;;;;;12.54;87.09;97318.69;4890729;29;20040;-82
2022/09/19 00:59:23;;;;;;;18.17;9.27;;;;;;;12.90;87.16;97371.47;4873612;29;20073;-82
2022/09/19 01:01:55;;;;;;;21.23;9.15;;;;;;;12.73;86.90;97359.38;4876285;29;20067;-81
2022/09/19 01:04:24;;;;;;;16.55;8.57;;;;;;;12.73;87.21;97341.97;4872181;29;20120;-82
2022/09/19 01:06:59;;;;;;;18.35;8.55;;;;;;;13.00;87.36;97380.47;4873426;29;20055;-82
2022/09/19 01:09:48;;;;;;;18.33;8.23;;;;;;;13.03;87.09;97375.03;4885248;29;20505;-81
2022/09/19 01:12:17;;;;;;;16.15;8.38;;;;;;;13.06;87.04;97368.84;4872054;29;20048;-83
2022/09/19 01:15:09;;;;;;;14.25;7.85;;;;;;;12.92;87.22;97365.22;4863279;29;20412;-81
2022/09/19 01:17:57;;;;;;;15.52;8.40;;;;;;;13.12;87.40;97363.25;4904270;29;20095;-80
2022/09/19 01:20:46;;;;;;;18.27;8.32;;;;;;;13.07;87.33;97357.47;4888549;29;20041;-83
2022/09/19 01:23:36;;;;;;;14.00;7.30;;;;;;;13.06;87.11;97335.72;4873964;29;20139;-83
2022/09/19 01:26:24;;;;;;;17.63;8.00;;;;;;;13.13;87.16;97351.03;4874501;29;20493;-81
2022/09/19 01:29:15;;;;;;;13.55;7.60;;;;;;;13.17;87.38;97350.75;4893387;29;20068;-85
2022/09/19 01:31:46;;;;;;;13.17;7.53;;;;;;;12.96;87.34;97305.88;4876694;29;20068;-83
2022/09/19 01:34:19;;;;;;;12.55;7.38;;;;;;;13.27;87.29;97351.06;4878590;29;20304;-81
2022/09/19 01:37:00;;;;;;;15.15;8.20;;;;;;;13.25;87.29;97350.31;4880879;29;20045;-82
2022/09/19 01:39:29;;;;;;;12.70;7.07;;;;;;;13.38;87.30;97355.66;4874814;29;20131;-81
2022/09/19 01:41:58;;;;;;;13.32;7.75;;;;;;;13.18;87.35;97307.22;4876374;29;20124;-81
2022/09/19 01:44:27;;;;;;;12.13;7.35;;;;;;;13.36;87.19;97349.66;4874333;29;20123;-80
2022/09/19 01:47:15;;;;;;;14.48;7.15;;;;;;;13.44;87.14;97351.88;4845884;29;20088;-83
2022/09/19 01:49:50;;;;;;;12.98;6.95;;;;;;;13.43;86.98;97345.81;4876824;29;20417;-81
2022/09/19 01:52:34;;;;;;;15.30;7.90;;;;;;;13.36;87.28;97339.22;4863209;29;20156;-82
2022/09/19 01:55:17;;;;;;;16.20;7.85;;;;;;;13.39;87.29;97328.59;4874591;29;20041;-82
2022/09/19 01:58:11;;;;;;;11.02;6.63;;;;;;;13.50;87.23;97338.44;4874932;29;20047;-83
2022/09/19 02:00:49;;;;;;;11.40;7.30;;;;;;;13.44;87.36;97317.94;4888958;29;20575;-83
2022/09/19 02:03:25;;;;;;;13.95;7.45;;;;;;;13.57;87.19;97336.31;4875497;29;20049;-82
2022/09/19 02:06:06;;;;;;;11.57;6.55;;;;;;;13.63;87.27;97351.59;4890190;29;20096;-81
2022/09/19 02:08:47;;;;;;;11.50;7.07;;;;;;;13.62;87.15;97342.09;4876547;29;20041;-83
2022/09/19 02:11:22;;;;;;;14.98;8.00;;;;;;;13.64;87.23;97345.44;4888967;29;20060;-83
2022/09/19 02:14:07;;;;;;;17.00;7.85;;;;;;;13.42;87.29;97307.56;4865412;29;20040;-80
2022/09/19 02:16:45;;;;;;;13.18;7.75;;;;;;;13.65;87.14;97339.28;4864666;29;20187;-83
2022/09/19 02:19:29;;;;;;;12.65;7.90;;;;;;;13.57;86.94;97318.84;4891406;29;20346;-83
2022/09/19 02:22:04;;;;;;;11.15;8.15;;;;;;;13.59;86.94;97319.59;4890329;29;20056;-82
2022/09/19 02:24:37;;;;;;;12.13;7.75;;;;;;;13.50;87.42;97302.72;4874278;29;20493;-82
2022/09/19 02:27:16;;;;;;;12.20;7.70;;;;;;;13.60;86.99;97320.44;4891556;29;20049;-82
2022/09/19 02:29:48;;;;;;;11.50;7.72;;;;;;;13.70;87.07;97326.78;4879997;29;20045;-82
2022/09/19 02:32:17;;;;;;;13.93;8.65;;;;;;;13.58;87.09;97298.78;4887361;29;20060;-84
2022/09/19 02:34:44;;;;;;;13.23;8.20;;;;;;;13.60;87.16;97315.19;4899188;29;20049;-82
2022/09/19 02:37:25;;;;;;;11.40;7.85;;;;;;;13.32;86.93;97269.84;4890683;29;20089;-82
2022/09/19 02:40:08;;;;;;;13.73;8.52;;;;;;;13.30;87.11;97271.72;4893261;29;20049;-82
2022/09/19 02:42:41;;;;;;;13.50;8.65;;;;;;;13.54;86.96;97314.66;4890913;29;20104;-83
2022/09/19 02:45:12;;;;;;;15.80;9.05;;;;;;;13.23;87.27;97266.03;4875488;29;20091;-81
2022/09/19 02:48:03;;;;;;;15.75;8.23;;;;;;;13.28;87.23;97276.19;4890962;29;20048;-81
2022/09/19 02:50:59;;;;;;;13.70;8.45;;;;;;;13.45;87.13;97301.31;4863061;29;20048;-81
2022/09/19 02:53:33;;;;;;;15.10;8.85;;;;;;;13.14;87.25;97264.78;4896233;29;20044;-82
2022/09/19 02:56:04;;;;;;;14.02;9.00;;;;;;;13.42;87.32;97307.56;4891980;29;20028;-81
2022/09/19 02:58:44;;;;;;;15.65;9.20;;;;;;;13.36;87.29;97298.28;4899597;29;20064;-82
2022/09/19 03:01:17;;;;;;;15.43;9.07;;;;;;;13.19;87.22;97259.28;4898777;29;20057;-82
2022/09/19 03:06:42;;;;;;;13.70;9.35;;;;;;;13.35;87.22;97264.44;4897813;29;20049;-82
2022/09/19 03:09:13;;;;;;;13.30;8.68;;;;;;;13.59;87.30;97308.28;4884540;29;20537;-82
2022/09/19 03:11:48;;;;;;;13.47;8.43;;;;;;;13.50;87.19;97275.75;4881689;29;20676;-84
2022/09/19 03:14:16;;;;;;;12.05;7.85;;;;;;;13.44;87.47;97268.28;4875141;29;20056;-83
2022/09/19 03:16:47;;;;;;;12.23;7.78;;;;;;;13.53;87.14;97278.16;4892184;29;20041;-83
2022/09/19 03:19:15;;;;;;;11.68;7.20;;;;;;;13.43;86.98;97272.66;4882134;29;20045;-85
2022/09/19 03:21:41;;;;;;;13.63;7.60;;;;;;;13.34;87.16;97247.09;4872639;29;20155;-83
2022/09/19 03:24:08;;;;;;;11.40;7.65;;;;;;;13.48;86.90;97269.75;4888722;29;20429;-82
2022/09/19 03:26:36;;;;;;;8.10;5.68;;;;;;;13.19;86.83;97260.13;4888157;29;20116;-82
2022/09/19 03:29:08;;;;;;;7.82;5.05;;;;;;;13.45;87.04;97296.09;4873888;29;20045;-81
2022/09/19 03:31:52;;;;;;;8.02;4.97;;;;;;;13.05;86.96;97247.88;4873657;29;20101;-81
2022/09/19 03:34:19;;;;;;;11.60;5.25;;;;;;;13.14;86.90;97261.34;4874374;29;20085;-81
2022/09/19 03:36:47;;;;;;;7.78;5.70;;;;;;;13.08;86.97;97236.44;4874043;29;20061;-83
2022/09/19 03:39:18;;;;;;;6.60;5.32;;;;;;;13.26;86.86;97271.03;4858116;29;20517;-83
2022/09/19 03:41:44;;;;;;;9.68;5.72;;;;;;;13.06;86.97;97227.84;4875034;29;20139;-83
2022/09/19 03:44:11;;;;;;;9.20;5.88;;;;;;;13.39;86.96;97277.22;4887634;29;20056;-82
2022/09/19 03:46:38;;;;;;;6.35;5.15;;;;;;;13.27;86.77;97251.81;4858692;29;20156;-81
2022/09/19 03:49:04;;;;;;;5.22;4.28;;;;;;;13.10;86.65;97213.69;4874006;29;20048;-84
2022/09/19 03:51:32;;;;;;;7.32;4.50;;;;;;;13.48;86.66;97270.63;4877232;29;20049;-82
2022/09/19 03:54:01;;;;;;;5.90;3.40;;;;;;;13.15;86.37;97242.97;4876631;29;20097;-81
2022/09/19 03:56:33;;;;;;;;;;;;;;;13.43;86.17;97283.13;4892657;29;20405;-82
2022/09/19 03:58:59;;;;;;;3.70;3.15;;;;;;;13.31;86.21;97276.00;4876380;29;19926;-82
2022/09/19 04:01:27;;;;;;;4.07;2.80;;;;;;;13.40;86.11;97291.97;4894077;29;20059;-80
2022/09/19 04:03:54;;;;;;;5.53;2.83;;;;;;;13.26;85.90;97258.84;4871074;29;20057;-84
2022/09/19 04:06:21;;;;;;;2.38;2.15;;;;;;;13.09;85.81;97269.44;4887179;29;20140;-83
2022/09/19 04:08:47;;;;;;;4.35;1.92;;;;;;;12.95;85.61;97262.44;4899264;29;20049;-86
2022/09/19 04:11:24;;;;;;;4.57;2.00;;;;;;;12.79;85.36;97267.72;4867283;29;20096;-84
2022/09/19 04:13:55;;;;;;;3.55;1.75;;;;;;;12.77;85.19;97251.28;4852548;29;20410;-84
2022/09/19 04:16:46;;;;;;;5.75;1.50;;;;;;;13.05;85.06;97320.97;4879613;29;20048;-83
2022/09/19 04:20:05;;;;;;;;;;;;;;;;;;;;;
2022/09/19 04:23:23;;;;;;;2.58;1.27;;;;;;;12.50;84.61;97247.59;4855272;29;20073;-84
2022/09/19 04:26:14;;;;;;;2.30;1.40;;;;;;;12.76;84.40;97288.75;4889687;29;20429;-81
2022/09/19 04:28:55;;;;;;;2.08;1.25;;;;;;;12.46;84.34;97243.47;4883010;29;20044;-82
2022/09/19 04:31:52;;;;;;;2.17;1.00;;;;;;;12.33;83.62;97237.28;4881476;29;20076;-83
2022/09/19 04:34:28;;;;;;;3.25;0.90;;;;;;;12.30;83.44;97246.13;4879214;29;20141;-83
2022/09/19 04:37:17;;;;;;;4.20;1.15;;;;;;;12.24;83.12;97238.66;4850713;29;20087;-82
2022/09/19 04:44:10;;;;;;;1.77;1.00;;;;;;;12.08;82.22;97227.38;4858970;29;20053;-82
2022/09/19 04:48:09;;;;;;;4.30;1.00;;;;;;;12.40;81.78;97276.91;4816319;29;20186;-83
2022/09/19 04:51:12;;;;;;;8.23;1.10;;;;;;;12.19;81.33;97245.88;4813589;29;20046;-83
2022/09/19 04:54:16;;;;;;;1.75;1.10;;;;;;;12.76;81.15;97348.75;4825311;29;20046;-83
2022/09/19 04:57:21;;;;;;;1.67;0.95;;;;;;;12.24;80.86;97256.91;4848940;29;20078;-84
2022/09/19 05:07:54;;;;;;;5.88;1.00;;;;;;;13.09;79.48;97301.59;4826602;29;20262;-84
2022/09/19 05:16:10;;;;;;;1.80;0.90;;;;;;;12.24;77.83;97261.25;4780118;29;20558;-84
2022/09/19 05:19:40;;;;;;;1.60;0.90;;;;;;;12.55;77.62;97324.75;4838826;29;20516;-83
2022/09/19 05:26:58;;;;;;;5.95;0.93;;;;;;;11.96;77.33;97250.59;4832207;29;20090;-84
2022/09/19 05:30:11;;;;;;;2.85;0.90;;;;;;;12.43;77.06;97344.53;4809975;29;20077;-85
2022/09/19 05:33:18;;;;;;;1.35;1.08;;;;;;;12.42;77.03;97354.09;4831193;29;20057;-84
2022/09/19 05:37:12;;;;;;;1.40;1.02;;;;;;;12.37;76.71;97309.19;4826475;29;20041;-84
2022/09/19 05:40:19;;;;;;;2.53;0.77;;;;;;;12.31;76.41;97323.41;4828688;29;20772;-85
2022/09/19 05:46:31;;;;;;;1.27;0.80;;;;;;;12.28;75.48;97365.28;4826354;29;20085;-84
2022/09/19 05:49:37;;;;;;;;;;;;;;;;;;;;;
2022/09/19 05:55:01;;;;;;;6.93;0.90;;;;;;;11.92;75.64;97301.19;4838322;29;20053;-87
2022/09/19 05:58:12;;;;;;;2.47;0.90;;;;;;;12.03;75.09;97348.38;4842940;29;20053;-84
2022/09/19 06:03:48;;;;;;;2.42;0.85;;;;;;;11.59;74.87;97299.44;4857803;29;20509;-81
2022/09/19 06:06:41;;;;;;;1.48;0.70;;;;;;;11.94;74.40;97390.56;4875451;29;20049;-81
2022/09/19 06:12:54;;;;;;;3.75;0.90;;;;;;;11.99;73.94;97372.09;4881168;29;20053;-84
2022/09/19 06:15:31;;;;;;;1.17;0.98;;;;;;;11.84;73.94;97319.84;4852974;29;20045;-86
2022/09/19 06:18:21;;;;;;;4.47;1.38;;;;;;;11.89;73.74;97316.97;4870417;29;20369;-80
2022/09/19 06:21:22;;;;;;;1.00;1.00;;;;;;;11.45;73.37;97282.78;4876144;29;20153;-84
2022/09/19 06:24:10;;;;;;;4.47;1.20;;;;;;;11.59;73.34;97334.16;4845486;29;20048;-83
2022/09/19 06:26:39;;;;;;;1.35;1.25;;;;;;;11.26;73.40;97298.53;4864546;29;20213;-87
2022/09/19 06:29:12;;;;;;;1.20;1.10;;;;;;;11.48;73.51;97366.88;4866649;29;20059;-88
2022/09/19 06:31:58;;;;;;;2.83;1.17;;;;;;;11.49;74.15;97337.31;4880046;29;20041;-83
2022/09/19 06:34:46;;;;;;;0.90;0.90;;;;;;;11.76;73.22;97345.44;4869562;29;20083;-83
2022/09/19 06:37:17;;;;;;;0.88;0.88;;;;;;;12.30;73.42;97386.91;4882874;29;20045;-83
2022/09/19 06:40:10;;;;;;;0.90;0.90;;;;;;;12.10;72.81;97367.16;4872131;29;20045;-83
2022/09/19 06:43:14;;;;;;;2.75;1.08;;;;;;;12.35;72.60;97397.13;4878196;29;20117;-84
2022/09/19 06:46:27;;;;;;;;;;;;;;;;;;;;;
2022/09/19 06:49:08;;;;;;;3.15;0.60;;;;;;;11.90;71.98;97409.88;4875655;29;20045;-85
2022/09/19 06:51:51;;;;;;;2.25;0.90;;;;;;;11.54;72.17;97336.16;4880558;29;20044;-84
2022/09/19 06:55:18;;;;;;;1.40;0.80;;;;;;;11.14;71.28;97309.56;4877249;29;20048;-83
2022/09/19 06:59:32;;;;;;;;;;;;;;;;;;;;;
2022/09/19 07:03:55;;;;;;;1.25;1.10;;;;;;;10.00;73.11;97370.47;4763316;29;20039;-84
2022/09/19 07:07:39;;;;;;;1.30;0.60;;;;;;;10.12;74.17;97419.25;4824010;29;20088;-83
2022/09/19 07:10:14;;;;;;;0.95;0.60;;;;;;;9.57;74.72;97337.69;4849265;29;20060;-87
2022/09/19 07:14:00;;;;;;;1.42;0.80;;;;;;;9.89;74.54;97446.28;4873063;29;20057;-86
2022/09/19 07:21:34;;;;;;;0.57;0.57;;;;;;;10.10;76.31;97444.47;4846996;29;20078;-85
2022/09/19 07:25:24;;;;;;;1.65;0.52;;;;;;;9.63;75.84;97345.19;4803141;29;20062;-84
2022/09/19 07:28:48;;;;;;;1.23;0.50;;;;;;;10.07;76.55;97455.00;4803366;29;20042;-84
2022/09/19 07:31:57;;;;;;;;;;;;;;;;;;;;;
2022/09/19 07:36:26;;;;;;;;;;;;;;;;;;;;;
2022/09/19 07:39:58;;;;;;;;;;;;;;;;;;;;;
2022/09/19 07:43:28;;;;;;;0.55;0.50;;;;;;;9.19;75.85;97364.41;4859279;29;20041;-82
2022/09/19 07:46:19;;;;;;;1.60;0.70;;;;;;;9.56;75.65;97406.13;4873769;29;20056;-86
2022/09/19 07:49:18;;;;;;;0.40;0.40;;;;;;;9.50;75.30;97411.56;4844242;29;20450;-86
2022/09/19 07:52:11;;;;;;;1.95;0.45;;;;;;;9.69;75.03;97411.63;4829018;29;20106;-85
2022/09/19 07:54:57;;;;;;;0.52;0.40;;;;;;;10.01;75.04;97482.09;4873392;29;20048;-86
2022/09/19 07:58:05;;;;;;;0.43;0.30;;;;;;;9.61;74.88;97401.53;4874522;29;20105;-86
2022/09/19 08:02:22;;;;;;;2.03;0.50;;;;;;;9.46;74.20;97384.03;4894461;29;20173;-84
2022/09/19 08:05:43;;;;;;;3.80;0.60;;;;;;;9.56;73.69;97380.16;4842417;29;20073;-85
2022/09/19 08:08:49;;;;;;;3.10;0.57;;;;;;;9.96;73.18;97390.50;4828685;29;20073;-86
2022/09/19 08:12:09;;;;;;;0.40;0.40;;;;;;;10.19;72.85;97402.50;4841370;29;20049;-84
2022/09/19 08:15:19;;;;;;;5.15;0.50;;;;;;;10.46;72.63;97424.72;4823313;29;20052;-87
2022/09/19 08:18:10;;;;;;;0.60;0.50;;;;;;;10.48;71.92;97449.72;4860130;29;20155;-81
2022/09/19 08:20:49;;;;;;;0.93;0.40;;;;;;;10.80;71.45;97404.94;4841560;29;20140;-85
2022/09/19 08:23:18;;;;;;;2.28;0.30;;;;;;;11.24;70.77;97451.38;4875546;29;20059;-86
2022/09/19 08:25:56;;;;;;;1.75;0.40;;;;;;;11.10;69.72;97439.03;4884147;29;20058;-83
2022/09/19 08:28:50;;;;;;;1.20;0.57;;;;;;;11.00;70.18;97362.31;4853891;29;20041;-88
2022/09/19 08:31:27;;;;;;;1.38;0.25;;;;;;;11.25;69.14;97423.56;4882709;29;20053;-85
2022/09/19 08:33:56;;;;;;;1.00;0.40;;;;;;;11.53;68.86;97450.84;4890135;29;20045;-86
2022/09/19 08:36:35;;;;;;;;;;;;;;;;;;;;;
2022/09/19 08:39:35;;;;;;;2.38;0.60;;;;;;;11.48;68.34;97440.63;4887347;29;20048;-86
2022/09/19 08:43:13;;;;;;;;;;;;;;;;;;;;;
2022/09/19 09:08:28;;;;;;;3.88;0.68;;;;;;;12.31;65.49;97451.19;4773521;30;20439;-86
2022/09/19 09:11:30;;;;;;;0.70;0.47;;;;;;;12.18;65.73;97439.72;4755488;30;20108;-85
2022/09/19 09:14:26;;;;;;;0.98;0.50;;;;;;;12.02;65.10;97463.16;4807476;29;20098;-82
2022/09/19 09:17:28;;;;;;;2.83;0.55;;;;;;;11.67;65.29;97455.34;4835751;29;20092;-86
2022/09/19 09:20:03;;;;;;;1.17;0.47;;;;;;;11.70;65.79;97458.63;4871526;29;20061;-84
2022/09/19 09:22:43;;;;;;;0.90;0.60;;;;;;;11.50;65.62;97547.34;4859809;29;20168;-82
2022/09/19 09:25:30;;;;;;;0.50;0.30;;;;;;;10.68;66.33;97429.75;4858328;29;20559;-83
2022/09/19 09:29:03;;;;;;;;;;;;;;;;;;;;;
2022/09/19 09:36:11;;;;;;;5.28;0.65;;;;;;;9.48;72.03;97515.47;4868598;29;20077;-85
2022/09/19 09:38:50;;;;;;;1.42;0.70;;;;;;;9.28;72.97;97505.88;4843808;29;20061;-86
2022/09/19 09:41:54;;;;;;;4.18;0.60;;;;;;;9.35;73.53;97503.88;4845947;29;20561;-85
2022/09/19 09:44:39;;;;;;;2.47;0.50;;;;;;;9.36;74.19;97528.94;4847626;29;20121;-84
2022/09/19 09:47:44;;;;;;;1.70;0.47;;;;;;;9.26;74.12;97479.16;4844722;29;20065;-84
2022/09/19 09:51:19;;;;;;;5.53;0.50;;;;;;;9.33;74.32;97508.28;4854641;29;20080;-84
2022/09/19 09:57:45;;;;;;;2.63;0.40;;;;;;;8.93;74.36;97494.31;4861181;29;20049;-83
2022/09/19 10:04:03;;;;;;;1.53;0.43;;;;;;;8.76;75.08;97456.91;4841275;29;20409;-85
2022/09/19 10:07:35;;;;;;;1.88;0.40;;;;;;;9.24;75.29;97517.28;4866570;29;20053;-86
2022/09/19 10:10:18;;;;;;;0.73;0.40;;;;;;;9.30;75.72;97519.66;4846946;29;20037;-85
2022/09/19 10:13:02;;;;;;;3.50;0.50;;;;;;;9.37;75.70;97498.66;4833430;29;20049;-84
2022/09/19 10:15:37;;;;;;;1.55;0.40;;;;;;;9.02;75.77;97434.31;4863546;29;20422;-84
2022/09/19 10:18:13;;;;;;;1.85;0.40;;;;;;;9.42;75.79;97478.53;4851007;29;20053;-83
2022/09/19 10:20:52;;;;;;;1.65;0.55;;;;;;;9.57;75.79;97516.00;4863001;29;20131;-85
2022/09/19 10:23:29;;;;;;;3.08;0.40;;;;;;;9.44;75.56;97484.50;4862590;29;20082;-83
2022/09/19 10:26:14;;;;;;;3.63;1.23;;;;;;;9.37;75.84;97481.31;4861526;29;20590;-84
2022/09/19 10:28:51;;;;;;;0.85;0.40;;;;;;;9.55;75.69;97473.66;4866069;29;20050;-84
2022/09/19 10:31:46;;;;;;;;;;;;;;;9.64;75.43;97500.09;4866290;29;20172;-84
2022/09/19 10:34:41;;;;;;;7.63;0.60;;;;;;;9.65;75.13;97483.59;4874490;29;19920;-85
2022/09/19 10:37:22;;;;;;;0.95;0.85;;;;;;;9.26;74.76;97437.63;4853199;29;20124;-85
2022/09/19 10:39:50;;;;;;;0.40;0.30;;;;;;;9.69;74.94;97494.72;4884369;29;20049;-85
2022/09/19 10:42:35;;;;;;;4.10;0.50;;;;;;;9.71;74.97;97481.66;4864363;29;20093;-84
2022/09/19 10:45:15;;;;;;;1.50;0.82;;;;;;;9.76;74.95;97435.56;4868767;29;20041;-84
2022/09/19 10:47:42;;;;;;;0.60;0.50;;;;;;;9.66;74.41;97474.06;4860114;29;20044;-83
2022/09/19 10:50:17;;;;;;;0.45;0.40;;;;;;;9.79;74.26;97461.41;4863954;29;20414;-81
2022/09/19 10:52:59;;;;;;;2.97;0.50;;;;;;;9.54;74.49;97415.72;4850561;29;20105;-83
2022/09/19 10:55:26;;;;;;;2.28;0.40;;;;;;;9.84;74.63;97490.59;4860783;29;20045;-83
2022/09/19 10:58:03;;;;;;;2.83;0.30;;;;;;;9.52;74.80;97458.22;4864551;29;20140;-82
2022/09/19 11:00:52;;;;;;;0.93;0.50;;;;;;;9.58;75.21;97486.53;4874372;29;20045;-83
2022/09/19 11:03:23;;;;;;;1.52;0.30;;;;;;;9.20;75.61;97437.88;4864835;29;20052;-86
2022/09/19 11:06:18;;;;;;;3.47;0.60;;;;;;;9.36;76.21;97504.75;4875853;29;20053;-86
2022/09/19 11:08:51;;;;;;;3.83;0.50;;;;;;;8.80;76.48;97404.03;4912233;29;20060;-85
2022/09/19 11:11:50;;;;;;;0.55;0.50;;;;;;;8.55;76.96;97360.94;4888378;29;20033;-83
2022/09/19 11:14:40;;;;;;;2.00;0.50;;;;;;;8.65;77.58;97383.88;4892878;29;20045;-81
2022/09/19 11:17:57;;;;;;;1.48;0.45;;;;;;;8.85;78.13;97430.59;4893709;29;20161;-83
2022/09/19 11:21:27;;;;;;;3.20;0.60;;;;;;;8.65;78.39;97457.34;4879549;29;20041;-85
2022/09/19 11:24:39;;;;;;;2.75;0.70;;;;;;;9.05;78.89;97478.25;4876140;29;20600;-86
2022/09/19 11:27:24;;;;;;;1.50;0.57;;;;;;;8.79;79.06;97420.50;4864265;29;20049;-83
2022/09/19 11:30:55;;;;;;;0.93;0.70;;;;;;;9.06;79.38;97507.66;4903623;29;20109;-84
2022/09/19 11:34:11;;;;;;;2.17;0.70;;;;;;;9.03;79.45;97454.16;4848677;29;20049;-84
2022/09/19 11:37:46;;;;;;;2.22;0.68;;;;;;;8.89;79.97;97454.69;4845965;29;20449;-82
2022/09/19 11:40:40;;;;;;;0.60;0.47;;;;;;;8.93;80.29;97482.19;4835273;29;20055;-86
2022/09/19 11:43:34;;;;;;;3.10;0.50;;;;;;;8.81;80.24;97433.38;4891094;29;20048;-83
2022/09/19 11:46:45;;;;;;;1.58;0.60;;;;;;;9.00;80.40;97475.84;4878715;29;20044;-83
2022/09/19 11:49:50;;;;;;;1.92;0.73;;;;;;;9.00;80.97;97472.44;4895018;29;20052;-84
2022/09/19 11:52:34;;;;;;;2.33;0.88;;;;;;;8.99;81.06;97487.13;4869711;29;20048;-84
2022/09/19 11:55:27;;;;;;;1.20;0.70;;;;;;;8.99;81.48;97463.78;4849827;29;20144;-83
2022/09/19 11:58:21;;;;;;;0.50;0.50;;;;;;;9.01;81.62;97495.69;4879100;29;20041;-83
2022/09/19 12:01:26;;;;;;;0.77;0.60;;;;;;;9.00;81.24;97481.03;4863734;29;20120;-82
2022/09/19 12:04:05;;;;;;;1.80;0.70;;;;;;;9.08;81.75;97492.88;4877131;29;20116;-82
2022/09/19 12:07:08;;;;;;;0.88;0.65;;;;;;;9.11;81.81;97495.34;4892234;29;20510;-82
2022/09/19 12:09:45;;;;;;;0.80;0.70;;;;;;;8.75;81.77;97429.28;4892568;29;20053;-83
2022/09/19 12:12:17;;;;;;;1.50;0.65;;;;;;;8.84;82.14;97457.44;4850157;29;20056;-84
2022/09/19 12:15:22;;;;;;;1.10;0.60;;;;;;;8.82;82.31;97441.13;4877466;29;20037;-84
2022/09/19 12:18:14;;;;;;;1.63;0.63;;;;;;;9.21;82.42;97504.44;4849492;29;20069;-82
2022/09/19 12:20:49;;;;;;;0.55;0.50;;;;;;;9.01;82.66;97485.31;4870973;29;20061;-82
2022/09/19 12:26:58;;;;;;;0.70;0.60;;;;;;;8.95;82.57;97464.81;4877538;29;20130;-81
2022/09/19 12:29:48;;;;;;;2.33;0.80;;;;;;;9.23;82.37;97515.59;4877335;29;20055;-85
2022/09/19 12:32:40;;;;;;;2.75;0.63;;;;;;;8.87;82.48;97446.94;4861733;29;20073;-84
2022/09/19 12:35:19;;;;;;;1.27;0.70;;;;;;;9.30;82.60;97511.88;4855457;29;20151;-85
2022/09/19 12:37:56;;;;;;;1.05;0.50;;;;;;;9.18;82.36;97504.56;4863670;29;20037;-84
2022/09/19 12:41:07;;;;;;;0.40;0.40;;;;;;;9.30;82.38;97529.16;4860675;29;20053;-83
2022/09/19 12:44:05;;;;;;;2.40;0.60;;;;;;;9.30;82.62;97527.44;4863924;29;20597;-81
2022/09/19 12:46:57;;;;;;;2.10;0.45;;;;;;;9.32;82.61;97533.41;4879238;29;20146;-81
2022/09/19 12:49:57;;;;;;;1.27;0.43;;;;;;;9.17;82.63;97515.84;4874927;29;20058;-82
2022/09/19 12:52:36;;;;;;;;;;;;;;;9.36;82.58;97539.31;4871597;29;20048;-82
2022/09/19 12:55:18;;;;;;;1.15;0.40;;;;;;;9.14;82.68;97500.41;4871430;29;20310;-85
2022/09/19 12:57:53;;;;;;;0.30;0.30;;;;;;;9.08;82.06;97503.25;4890866;29;20044;-84
2022/09/19 13:00:20;;;;;;;1.45;0.57;;;;;;;9.32;82.25;97564.56;4872620;29;20049;-82
2022/09/19 13:02:58;;;;;;;2.58;0.47;;;;;;;9.28;82.10;97552.59;4872449;29;20045;-84
2022/09/19 13:08:48;;;;;;;2.63;0.30;;;;;;;9.07;82.28;97511.94;4885987;29;20049;-86
2022/09/19 13:11:27;;;;;;;2.08;0.40;;;;;;;9.10;82.14;97556.75;4872980;29;20048;-83
2022/09/19 13:14:05;;;;;;;2.17;0.80;;;;;;;9.16;82.07;97564.31;4869918;29;20079;-82
2022/09/19 13:23:29;;;;;;;2.30;0.30;;;;;;;9.21;82.34;97545.97;4873759;29;20073;-82
2022/09/19 13:25:58;;;;;;;;;;;;;;;;;;;;;
2022/09/19 13:29:28;;;;;;;0.55;0.30;;;;;;;9.31;81.94;97567.19;4814716;29;20106;-85
2022/09/19 13:31:55;;;;;;;7.50;0.45;;;;;;;9.29;81.96;97601.00;4879892;29;20407;-81
2022/09/19 13:34:43;;;;;;;0.90;0.30;;;;;;;9.27;82.36;97589.84;4872216;29;20417;-82
2022/09/19 13:37:32;;;;;;;3.88;0.43;;;;;;;9.22;81.92;97577.97;4871570;29;20052;-82
2022/09/19 13:40:57;;;;;;;1.45;0.50;;;;;;;9.18;82.07;97591.03;4877276;29;20048;-83
2022/09/19 13:43:49;;;;;;;1.77;0.40;;;;;;;8.97;82.09;97576.31;4858222;29;20069;-83
2022/09/19 13:46:18;;;;;;;;;;;;;;;9.16;82.01;97604.97;4852781;29;20053;-84
2022/09/19 13:49:14;;;;;;;1.55;0.45;;;;;;;8.77;81.98;97554.56;4879826;29;19920;-84
2022/09/19 13:52:22;;;;;;;0.73;0.40;;;;;;;9.06;82.08;97608.81;4865538;29;20049;-84
2022/09/19 13:54:54;;;;;;;1.75;0.40;;;;;;;9.04;82.36;97591.56;4874420;29;20125;-84
2022/09/19 13:57:30;;;;;;;1.80;0.30;;;;;;;8.86;82.62;97581.88;4902007;29;20052;-85
2022/09/19 14:00:08;;;;;;;1.58;0.57;;;;;;;8.71;82.38;97550.44;4896372;29;20063;-84
2022/09/19 14:03:01;;;;;;;4.80;0.57;;;;;;;8.78;82.66;97573.53;4880895;29;20040;-82
2022/09/19 14:05:39;;;;;;;2.67;0.40;;;;;;;8.47;82.39;97526.22;4880501;29;20071;-82
2022/09/19 14:08:43;;;;;;;1.25;0.20;;;;;;;8.67;82.38;97569.59;4870701;29;20052;-82
2022/09/19 14:11:50;;;;;;;1.88;0.40;;;;;;;8.72;82.54;97551.28;4896859;29;20049;-82
2022/09/19 14:14:50;;;;;;;1.55;0.50;;;;;;;9.16;82.45;97617.94;4823155;29;20094;-82
2022/09/19 14:17:33;;;;;;;0.32;0.30;;;;;;;8.95;82.42;97570.31;4887775;29;20080;-82
2022/09/19 14:20:48;;;;;;;3.00;0.32;;;;;;;8.64;82.31;97498.84;4882236;29;20044;-85
2022/09/19 14:23:16;;;;;;;0.85;0.60;;;;;;;9.26;82.21;97601.13;4866833;29;20045;-83
2022/09/19 14:26:07;;;;;;;3.88;0.55;;;;;;;9.36;82.16;97622.38;4877969;29;20129;-83
2022/09/19 14:28:51;;;;;;;4.97;1.50;;;;;;;9.38;82.14;97611.94;4897078;29;20179;-83
2022/09/19 14:31:26;;;;;;;2.42;0.50;;;;;;;9.41;82.31;97630.84;4864764;29;20049;-84
2022/09/19 14:34:31;;;;;;;1.65;0.75;;;;;;;9.34;82.07;97632.84;4868026;29;20047;-83
2022/09/19 14:37:21;;;;;;;0.55;0.55;;;;;;;9.38;81.71;97630.94;4900088;29;20101;-85
2022/09/19 14:40:08;;;;;;;1.67;0.40;;;;;;;9.39;81.89;97650.81;4887129;29;20497;-83
2022/09/19 14:42:53;;;;;;;2.85;0.70;;;;;;;9.38;81.72;97648.28;4900563;29;20532;-81
2022/09/19 14:45:24;;;;;;;1.88;0.45;;;;;;;9.37;81.51;97641.41;4870747;29;20037;-82
2022/09/19 14:47:56;;;;;;;1.05;0.50;;;;;;;9.21;81.61;97626.41;4900439;29;20421;-84
2022/09/19 14:50:37;;;;;;;3.53;0.70;;;;;;;9.16;81.68;97630.91;4880699;29;20524;-82
2022/09/19 14:53:16;;;;;;;1.50;0.43;;;;;;;9.40;81.10;97670.69;4881216;29;20048;-83
2022/09/19 14:55:48;;;;;;;3.50;0.50;;;;;;;9.08;81.67;97617.41;4876390;29;20120;-82
2022/09/19 14:58:32;;;;;;;1.35;0.40;;;;;;;9.08;81.21;97614.81;4879295;29;20041;-85
2022/09/19 15:01:14;;;;;;;1.58;0.40;;;;;;;9.34;81.48;97665.72;4867206;29;20483;-83